createdAt,value
2017-08-27T00:00:05.647Z,75.55
2017-08-27T00:01:02.913Z,75.56
2017-08-27T00:02:00.170Z,75.58
2017-08-27T00:02:57.434Z,75.58
2017-08-27T00:03:54.697Z,75.58
2017-08-27T00:04:51.957Z,75.56
2017-08-27T00:05:49.205Z,75.56
2017-08-27T00:06:46.490Z,75.55
2017-08-27T00:07:43.803Z,75.56
2017-08-27T00:08:41.081Z,75.57
2017-08-27T00:09:38.337Z,75.56
2017-08-27T00:10:35.639Z,75.56
2017-08-27T00:11:32.965Z,75.57
2017-08-27T00:12:30.276Z,75.57
2017-08-27T00:13:27.554Z,75.57
2017-08-27T00:14:24.829Z,75.57
2017-08-27T00:15:22.073Z,75.57
2017-08-27T00:16:19.337Z,75.53
2017-08-27T00:17:16.616Z,75.58
2017-08-27T00:18:13.893Z,75.55
2017-08-27T00:19:11.146Z,75.57
2017-08-27T00:20:08.429Z,75.57
2017-08-27T00:21:05.685Z,75.59
2017-08-27T00:22:03.062Z,75.58
2017-08-27T00:23:00.345Z,75.61
2017-08-27T00:23:59.675Z,75.59
2017-08-27T00:24:56.927Z,75.60
2017-08-27T00:25:54.300Z,75.62
2017-08-27T00:26:51.647Z,75.61
2017-08-27T00:27:48.973Z,75.61
2017-08-27T00:28:46.230Z,75.62
2017-08-27T00:29:43.520Z,75.64
2017-08-27T00:30:40.794Z,75.64
2017-08-27T00:31:38.061Z,75.64
2017-08-27T00:32:35.337Z,75.64
2017-08-27T00:33:32.613Z,75.66
2017-08-27T00:34:29.878Z,75.66
2017-08-27T00:35:27.149Z,75.67
2017-08-27T00:36:24.419Z,75.67
2017-08-27T00:37:21.705Z,75.70
2017-08-27T00:38:18.942Z,75.71
2017-08-27T00:39:16.218Z,75.75
2017-08-27T00:40:13.469Z,75.75
2017-08-27T00:41:10.754Z,75.79
2017-08-27T00:42:08.001Z,75.79
2017-08-27T00:43:05.286Z,75.79
2017-08-27T00:44:02.556Z,75.81
2017-08-27T00:44:59.842Z,75.82
2017-08-27T00:45:57.113Z,75.81
2017-08-27T00:46:54.397Z,75.81
2017-08-27T00:47:51.670Z,75.80
2017-08-27T00:48:48.942Z,75.83
2017-08-27T00:49:46.201Z,75.81
2017-08-27T00:50:43.482Z,75.84
2017-08-27T00:51:40.746Z,75.82
2017-08-27T00:52:38.036Z,75.84
2017-08-27T00:53:35.323Z,75.81
2017-08-27T00:54:32.694Z,75.85
2017-08-27T00:55:29.959Z,75.85
2017-08-27T00:56:27.275Z,75.84
2017-08-27T00:57:24.590Z,75.86
2017-08-27T00:58:21.888Z,75.85
2017-08-27T00:59:19.152Z,75.88
2017-08-27T01:00:16.423Z,75.88
2017-08-27T01:01:13.669Z,75.88
2017-08-27T01:02:10.950Z,75.90
2017-08-27T01:03:08.242Z,75.88
2017-08-27T01:04:05.530Z,75.92
2017-08-27T01:05:02.830Z,75.93
2017-08-27T01:06:00.109Z,75.94
2017-08-27T01:06:57.373Z,75.95
2017-08-27T01:07:54.673Z,75.96
2017-08-27T01:08:51.951Z,75.97
2017-08-27T01:09:49.233Z,75.96
2017-08-27T01:10:46.505Z,75.96
2017-08-27T01:11:43.797Z,75.97
2017-08-27T01:12:41.061Z,75.98
2017-08-27T01:13:38.370Z,76.00
2017-08-27T01:14:35.633Z,76.02
2017-08-27T01:15:32.902Z,76.03
2017-08-27T01:16:30.167Z,76.03
2017-08-27T01:17:27.448Z,76.04
2017-08-27T01:18:24.917Z,76.05
2017-08-27T01:19:22.201Z,76.07
2017-08-27T01:20:19.486Z,76.06
2017-08-27T01:21:16.774Z,76.07
2017-08-27T01:22:14.041Z,76.12
2017-08-27T01:23:11.322Z,76.12
2017-08-27T01:24:08.593Z,76.12
2017-08-27T01:25:05.865Z,76.12
2017-08-27T01:26:03.117Z,76.15
2017-08-27T01:27:00.391Z,76.14
2017-08-27T01:27:57.634Z,76.14
2017-08-27T01:28:54.909Z,76.14
2017-08-27T01:29:52.162Z,76.14
2017-08-27T01:30:49.425Z,76.16
2017-08-27T01:31:46.673Z,76.13
2017-08-27T01:32:43.950Z,76.17
2017-08-27T01:33:41.201Z,76.19
2017-08-27T01:34:38.465Z,76.16
2017-08-27T01:35:35.722Z,76.18
2017-08-27T01:36:33.004Z,76.18
2017-08-27T01:37:30.254Z,76.19
2017-08-27T01:38:27.525Z,76.18
2017-08-27T01:39:24.770Z,76.20
2017-08-27T01:40:22.022Z,76.22
2017-08-27T01:41:19.272Z,76.19
2017-08-27T01:42:16.545Z,76.23
2017-08-27T01:43:13.804Z,76.21
2017-08-27T01:44:11.089Z,76.23
2017-08-27T01:45:08.336Z,76.22
2017-08-27T01:46:05.593Z,76.22
2017-08-27T01:47:02.849Z,76.25
2017-08-27T01:48:00.117Z,76.24
2017-08-27T01:48:57.379Z,76.26
2017-08-27T01:49:54.662Z,76.26
2017-08-27T01:50:51.930Z,76.27
2017-08-27T01:51:49.212Z,76.27
2017-08-27T01:52:46.458Z,76.29
2017-08-27T01:53:43.731Z,76.26
2017-08-27T01:54:41.022Z,76.27
2017-08-27T01:55:38.293Z,76.28
2017-08-27T01:56:35.548Z,76.30
2017-08-27T01:57:32.837Z,76.30
2017-08-27T01:58:30.108Z,76.31
2017-08-27T01:59:27.429Z,76.32
2017-08-27T02:00:24.722Z,76.34
2017-08-27T02:01:21.997Z,76.34
2017-08-27T02:02:19.248Z,76.35
2017-08-27T02:03:16.518Z,76.35
2017-08-27T02:04:13.782Z,76.37
2017-08-27T02:05:11.091Z,76.39
2017-08-27T02:06:08.347Z,76.39
2017-08-27T02:07:05.606Z,76.40
2017-08-27T02:08:02.873Z,76.40
2017-08-27T02:09:00.149Z,76.42
2017-08-27T02:09:57.434Z,76.42
2017-08-27T02:10:54.732Z,76.45
2017-08-27T02:11:52.002Z,76.46
2017-08-27T02:12:49.386Z,76.43
2017-08-27T02:13:46.645Z,76.44
2017-08-27T02:14:43.942Z,76.46
2017-08-27T02:15:41.209Z,76.46
2017-08-27T02:16:38.850Z,76.46
2017-08-27T02:17:36.121Z,76.47
2017-08-27T02:18:33.398Z,76.48
2017-08-27T02:19:30.645Z,76.47
2017-08-27T02:20:27.942Z,76.49
2017-08-27T02:21:25.239Z,76.48
2017-08-27T02:22:22.501Z,76.51
2017-08-27T02:23:19.754Z,76.51
2017-08-27T02:24:17.017Z,76.52
2017-08-27T02:25:14.321Z,76.53
2017-08-27T02:26:11.616Z,76.52
2017-08-27T02:27:09.085Z,76.54
2017-08-27T02:28:06.365Z,76.54
2017-08-27T02:29:03.626Z,76.54
2017-08-27T02:30:00.885Z,76.55
2017-08-27T02:30:58.186Z,76.55
2017-08-27T02:31:55.458Z,76.57
2017-08-27T02:32:52.798Z,76.58
2017-08-27T02:33:50.061Z,76.60
2017-08-27T02:34:47.311Z,76.60
2017-08-27T02:35:44.602Z,76.59
2017-08-27T02:36:41.881Z,76.61
2017-08-27T02:37:39.175Z,76.62
2017-08-27T02:38:36.439Z,76.63
2017-08-27T02:39:33.709Z,76.63
2017-08-27T02:40:30.995Z,76.65
2017-08-27T02:41:28.271Z,76.64
2017-08-27T02:42:25.542Z,76.65
2017-08-27T02:43:22.822Z,76.63
2017-08-27T02:44:20.098Z,76.66
2017-08-27T02:45:17.380Z,76.66
2017-08-27T02:46:14.656Z,76.67
2017-08-27T02:47:11.951Z,76.68
2017-08-27T02:48:09.238Z,76.67
2017-08-27T02:49:06.517Z,76.68
2017-08-27T02:50:03.829Z,76.69
2017-08-27T02:51:01.186Z,76.71
2017-08-27T02:51:58.438Z,76.71
2017-08-27T02:52:55.713Z,76.72
2017-08-27T02:53:52.969Z,76.74
2017-08-27T02:54:50.233Z,76.75
2017-08-27T02:55:47.507Z,76.76
2017-08-27T02:56:44.811Z,76.78
2017-08-27T02:57:42.082Z,76.79
2017-08-27T02:58:39.349Z,76.80
2017-08-27T02:59:36.603Z,76.81
2017-08-27T03:00:33.870Z,76.80
2017-08-27T03:01:31.138Z,76.83
2017-08-27T03:02:28.416Z,76.84
2017-08-27T03:03:25.674Z,76.85
2017-08-27T03:04:22.958Z,76.89
2017-08-27T03:05:20.226Z,76.92
2017-08-27T03:06:17.505Z,76.93
2017-08-27T03:07:14.741Z,76.94
2017-08-27T03:08:12.486Z,76.96
2017-08-27T03:09:09.877Z,76.97
2017-08-27T03:10:07.138Z,76.96
2017-08-27T03:11:04.385Z,77.00
2017-08-27T03:12:01.683Z,77.01
2017-08-27T03:12:58.964Z,77.03
2017-08-27T03:13:56.234Z,77.02
2017-08-27T03:14:53.497Z,77.05
2017-08-27T03:15:50.758Z,77.06
2017-08-27T03:16:48.031Z,77.09
2017-08-27T03:17:45.286Z,77.09
2017-08-27T03:18:42.526Z,77.09
2017-08-27T03:19:39.890Z,77.12
2017-08-27T03:20:37.161Z,77.13
2017-08-27T03:21:34.458Z,77.17
2017-08-27T03:22:31.722Z,77.17
2017-08-27T03:23:28.981Z,77.17
2017-08-27T03:24:26.219Z,77.22
2017-08-27T03:25:23.586Z,77.23
2017-08-27T03:26:20.858Z,77.22
2017-08-27T03:27:18.158Z,77.27
2017-08-27T03:28:15.425Z,77.31
2017-08-27T03:29:12.694Z,77.32
2017-08-27T03:30:09.956Z,77.35
2017-08-27T03:31:07.225Z,77.39
2017-08-27T03:32:04.507Z,77.38
2017-08-27T03:33:01.782Z,77.39
2017-08-27T03:33:59.039Z,77.42
2017-08-27T03:34:56.307Z,77.40
2017-08-27T03:35:53.604Z,77.42
2017-08-27T03:36:50.918Z,77.44
2017-08-27T03:37:48.185Z,77.47
2017-08-27T03:38:45.461Z,77.48
2017-08-27T03:39:42.706Z,77.51
2017-08-27T03:40:39.963Z,77.52
2017-08-27T03:41:37.229Z,77.54
2017-08-27T03:42:34.514Z,77.57
2017-08-27T03:43:31.757Z,77.57
2017-08-27T03:44:29.025Z,77.59
2017-08-27T03:45:26.276Z,77.60
2017-08-27T03:46:23.545Z,77.64
2017-08-27T03:47:20.811Z,77.65
2017-08-27T03:48:18.077Z,77.70
2017-08-27T03:49:15.326Z,77.72
2017-08-27T03:50:12.585Z,77.74
2017-08-27T03:51:09.854Z,77.77
2017-08-27T03:52:07.187Z,77.77
2017-08-27T03:53:04.474Z,77.78
2017-08-27T03:54:01.746Z,77.78
2017-08-27T03:54:58.998Z,77.79
2017-08-27T03:55:56.269Z,77.80
2017-08-27T03:56:53.558Z,77.82
2017-08-27T03:57:50.833Z,77.85
2017-08-27T03:58:48.095Z,77.87
2017-08-27T03:59:45.338Z,77.86
2017-08-27T04:00:42.597Z,77.90
2017-08-27T04:01:39.957Z,77.89
2017-08-27T04:02:37.215Z,77.91
2017-08-27T04:03:34.482Z,77.96
2017-08-27T04:04:31.786Z,77.97
2017-08-27T04:05:29.072Z,77.99
2017-08-27T04:06:26.350Z,78.03
2017-08-27T04:07:23.610Z,78.04
2017-08-27T04:08:20.881Z,78.05
2017-08-27T04:09:18.178Z,78.09
2017-08-27T04:10:15.469Z,78.12
2017-08-27T04:11:12.731Z,78.14
2017-08-27T04:12:09.998Z,78.14
2017-08-27T04:13:07.294Z,78.17
2017-08-27T04:14:04.562Z,78.19
2017-08-27T04:15:01.847Z,78.21
2017-08-27T04:15:59.116Z,78.24
2017-08-27T04:16:56.393Z,78.26
2017-08-27T04:17:53.682Z,78.30
2017-08-27T04:18:50.966Z,78.33
2017-08-27T04:19:48.242Z,78.34
2017-08-27T04:20:45.528Z,78.37
2017-08-27T04:21:42.783Z,78.39
2017-08-27T04:22:40.060Z,78.41
2017-08-27T04:23:37.331Z,78.43
2017-08-27T04:24:34.626Z,78.44
2017-08-27T04:25:31.890Z,78.49
2017-08-27T04:26:29.168Z,78.52
2017-08-27T04:27:26.421Z,78.53
2017-08-27T04:28:23.727Z,78.55
2017-08-27T04:29:20.978Z,78.56
2017-08-27T04:30:18.286Z,78.59
2017-08-27T04:31:17.586Z,78.59
2017-08-27T04:32:14.849Z,78.63
2017-08-27T04:33:12.165Z,78.65
2017-08-27T04:34:09.596Z,78.67
2017-08-27T04:35:06.861Z,78.69
2017-08-27T04:36:04.162Z,78.73
2017-08-27T04:37:01.433Z,78.75
2017-08-27T04:37:58.706Z,78.77
2017-08-27T04:38:56.019Z,78.79
2017-08-27T04:39:53.438Z,78.81
2017-08-27T04:40:50.706Z,78.84
2017-08-27T04:41:47.994Z,78.85
2017-08-27T04:42:45.257Z,78.87
2017-08-27T04:43:42.594Z,78.88
2017-08-27T04:44:39.845Z,78.91
2017-08-27T04:45:37.150Z,78.95
2017-08-27T04:46:34.746Z,78.96
2017-08-27T04:47:32.124Z,78.99
2017-08-27T04:48:29.441Z,79.01
2017-08-27T04:49:26.735Z,79.04
2017-08-27T04:50:24.002Z,79.06
2017-08-27T04:51:21.286Z,79.08
2017-08-27T04:52:18.554Z,79.11
2017-08-27T04:53:15.898Z,79.13
2017-08-27T04:54:13.163Z,79.15
2017-08-27T04:55:10.441Z,79.14
2017-08-27T04:56:07.695Z,79.16
2017-08-27T04:57:04.974Z,79.18
2017-08-27T04:58:02.230Z,79.23
2017-08-27T04:58:59.552Z,79.24
2017-08-27T04:59:56.815Z,79.24
2017-08-27T05:00:54.601Z,79.27
2017-08-27T05:01:51.853Z,79.30
2017-08-27T05:02:49.129Z,79.33
2017-08-27T05:03:46.378Z,79.35
2017-08-27T05:04:43.725Z,79.37
2017-08-27T05:05:41.009Z,79.42
2017-08-27T05:06:38.438Z,79.44
2017-08-27T05:07:35.742Z,79.46
2017-08-27T05:08:33.022Z,79.49
2017-08-27T05:09:30.347Z,79.51
2017-08-27T05:10:27.709Z,79.54
2017-08-27T05:11:25.049Z,79.57
2017-08-27T05:12:22.319Z,79.58
2017-08-27T05:13:19.590Z,79.60
2017-08-27T05:14:16.935Z,79.62
2017-08-27T05:15:14.171Z,79.66
2017-08-27T05:16:11.433Z,79.69
2017-08-27T05:17:08.694Z,79.70
2017-08-27T05:18:05.974Z,79.72
2017-08-27T05:19:03.221Z,79.74
2017-08-27T05:20:00.510Z,79.77
2017-08-27T05:20:57.769Z,79.81
2017-08-27T05:21:55.029Z,79.82
2017-08-27T05:22:52.278Z,79.85
2017-08-27T05:23:49.548Z,79.87
2017-08-27T05:24:46.806Z,79.87
2017-08-27T05:25:44.098Z,79.90
2017-08-27T05:26:41.353Z,79.94
2017-08-27T05:27:41.586Z,79.97
2017-08-27T05:28:38.850Z,79.99
2017-08-27T05:29:36.177Z,80.05
2017-08-27T05:30:33.535Z,80.10
2017-08-27T05:31:30.806Z,80.13
2017-08-27T05:32:28.181Z,80.17
2017-08-27T05:33:25.437Z,80.20
2017-08-27T05:34:22.704Z,80.25
2017-08-27T05:35:20.177Z,80.26
2017-08-27T05:36:17.482Z,80.29
2017-08-27T05:37:14.770Z,80.32
2017-08-27T05:38:12.060Z,80.32
2017-08-27T05:39:09.314Z,80.34
2017-08-27T05:40:06.641Z,80.39
2017-08-27T05:41:03.918Z,80.40
2017-08-27T05:42:01.201Z,80.42
2017-08-27T05:42:58.465Z,80.48
2017-08-27T05:43:55.746Z,80.49
2017-08-27T05:44:52.995Z,80.52
2017-08-27T05:45:50.320Z,80.54
2017-08-27T05:46:47.558Z,80.55
2017-08-27T05:47:44.852Z,80.58
2017-08-27T05:48:42.163Z,80.59
2017-08-27T05:49:39.442Z,80.63
2017-08-27T05:50:36.732Z,80.64
2017-08-27T05:51:34.016Z,80.67
2017-08-27T05:52:31.294Z,80.70
2017-08-27T05:53:28.586Z,80.71
2017-08-27T05:54:25.854Z,80.72
2017-08-27T05:55:23.150Z,80.76
2017-08-27T05:56:20.454Z,80.79
2017-08-27T05:57:17.746Z,80.80
2017-08-27T05:58:15.004Z,80.82
2017-08-27T05:59:12.329Z,80.84
2017-08-27T06:00:09.619Z,80.87
2017-08-27T06:01:07.170Z,80.91
2017-08-27T06:02:04.438Z,80.94
2017-08-27T06:03:01.725Z,81.00
2017-08-27T06:03:59.002Z,81.03
2017-08-27T06:04:56.296Z,81.06
2017-08-27T06:05:53.613Z,81.08
2017-08-27T06:06:50.878Z,81.11
2017-08-27T06:07:48.139Z,81.14
2017-08-27T06:08:45.429Z,81.15
2017-08-27T06:09:42.709Z,81.19
2017-08-27T06:10:40.054Z,81.22
2017-08-27T06:11:37.386Z,81.23
2017-08-27T06:12:34.753Z,81.25
2017-08-27T06:13:32.066Z,81.27
2017-08-27T06:14:29.461Z,81.27
2017-08-27T06:15:26.918Z,81.32
2017-08-27T06:16:24.281Z,81.33
2017-08-27T06:17:21.603Z,81.35
2017-08-27T06:18:18.966Z,81.38
2017-08-27T06:19:16.339Z,81.38
2017-08-27T06:20:13.663Z,81.40
2017-08-27T06:21:11.163Z,81.43
2017-08-27T06:22:08.546Z,81.45
2017-08-27T06:23:05.860Z,81.48
2017-08-27T06:24:03.234Z,81.51
2017-08-27T06:25:00.624Z,81.53
2017-08-27T06:25:58.109Z,81.61
2017-08-27T06:26:55.402Z,81.63
2017-08-27T06:27:52.715Z,81.69
2017-08-27T06:28:50.130Z,81.71
2017-08-27T06:29:47.527Z,81.72
2017-08-27T06:30:44.870Z,81.76
2017-08-27T06:31:42.348Z,81.79
2017-08-27T06:32:40.135Z,81.80
2017-08-27T06:33:37.470Z,81.85
2017-08-27T06:34:34.810Z,81.88
2017-08-27T06:35:32.230Z,81.94
2017-08-27T06:36:29.654Z,81.94
2017-08-27T06:37:27.062Z,81.97
2017-08-27T06:38:24.387Z,81.99
2017-08-27T06:39:21.833Z,82.03
2017-08-27T06:40:19.338Z,82.05
2017-08-27T06:41:17.058Z,82.07
2017-08-27T06:42:14.540Z,82.11
2017-08-27T06:43:12.111Z,82.13
2017-08-27T06:44:09.517Z,82.16
2017-08-27T06:45:06.927Z,82.17
2017-08-27T06:46:04.246Z,82.20
2017-08-27T06:47:01.663Z,82.24
2017-08-27T06:47:59.010Z,82.25
2017-08-27T06:48:56.471Z,82.28
2017-08-27T06:49:54.085Z,82.31
2017-08-27T06:50:51.421Z,82.35
2017-08-27T06:51:48.884Z,82.40
2017-08-27T06:52:46.451Z,82.40
2017-08-27T06:53:44.626Z,82.42
2017-08-27T06:54:44.203Z,82.42
2017-08-27T06:55:41.593Z,82.47
2017-08-27T06:56:38.954Z,82.50
2017-08-27T06:57:36.259Z,82.53
2017-08-27T06:58:33.655Z,82.55
2017-08-27T06:59:31.313Z,82.60
2017-08-27T07:00:28.884Z,82.62
2017-08-27T07:01:26.665Z,82.66
2017-08-27T07:02:24.049Z,82.70
2017-08-27T07:03:21.502Z,82.73
2017-08-27T07:04:18.837Z,82.78
2017-08-27T07:05:16.141Z,82.81
2017-08-27T07:06:13.524Z,82.84
2017-08-27T07:07:10.926Z,82.87
2017-08-27T07:08:08.338Z,82.92
2017-08-27T07:09:05.682Z,82.97
2017-08-27T07:10:03.031Z,82.98
2017-08-27T07:11:00.613Z,83.01
2017-08-27T07:11:58.149Z,83.03
2017-08-27T07:12:55.588Z,83.06
2017-08-27T07:13:53.234Z,83.05
2017-08-27T07:14:50.576Z,83.11
2017-08-27T07:15:48.029Z,83.14
2017-08-27T07:16:45.370Z,83.19
2017-08-27T07:17:42.839Z,83.20
2017-08-27T07:18:40.404Z,83.24
2017-08-27T07:19:37.805Z,83.28
2017-08-27T07:20:35.239Z,83.33
2017-08-27T07:21:33.518Z,83.35
2017-08-27T07:22:30.923Z,83.39
2017-08-27T07:23:28.431Z,83.42
2017-08-27T07:24:25.893Z,83.44
2017-08-27T07:25:23.547Z,83.49
2017-08-27T07:26:20.856Z,83.52
2017-08-27T07:27:18.414Z,83.56
2017-08-27T07:28:15.810Z,83.60
2017-08-27T07:29:13.119Z,83.62
2017-08-27T07:30:10.621Z,83.67
2017-08-27T07:31:10.085Z,83.71
2017-08-27T07:32:07.482Z,83.72
2017-08-27T07:33:05.728Z,83.74
2017-08-27T07:34:03.034Z,83.76
2017-08-27T07:35:00.707Z,83.79
2017-08-27T07:35:57.986Z,83.80
2017-08-27T07:36:55.430Z,83.84
2017-08-27T07:37:52.902Z,83.86
2017-08-27T07:38:50.529Z,83.89
2017-08-27T07:39:47.906Z,83.93
2017-08-27T07:40:45.235Z,83.96
2017-08-27T07:41:42.672Z,83.98
2017-08-27T07:42:41.460Z,84.00
2017-08-27T07:43:40.559Z,84.05
2017-08-27T07:44:37.910Z,84.08
2017-08-27T07:45:35.343Z,84.10
2017-08-27T07:46:33.621Z,84.12
2017-08-27T07:47:30.947Z,84.17
2017-08-27T07:48:28.318Z,84.17
2017-08-27T07:49:25.658Z,84.19
2017-08-27T07:50:23.194Z,84.20
2017-08-27T07:51:20.958Z,84.21
2017-08-27T07:52:18.791Z,84.24
2017-08-27T07:53:18.963Z,84.26
2017-08-27T07:54:16.343Z,84.27
2017-08-27T07:55:14.583Z,84.32
2017-08-27T07:56:12.095Z,84.32
2017-08-27T07:57:10.085Z,84.41
2017-08-27T07:58:07.582Z,84.41
2017-08-27T07:59:04.936Z,84.42
2017-08-27T08:00:02.418Z,84.45
2017-08-27T08:00:59.826Z,84.48
2017-08-27T08:01:57.261Z,84.52
2017-08-27T08:02:55.934Z,84.58
2017-08-27T08:03:53.686Z,84.59
2017-08-27T08:04:52.933Z,84.63
2017-08-27T08:05:50.729Z,84.65
2017-08-27T08:06:48.274Z,84.66
2017-08-27T08:07:47.820Z,84.67
2017-08-27T08:08:46.173Z,84.70
2017-08-27T08:09:43.510Z,84.72
2017-08-27T08:10:40.877Z,84.76
2017-08-27T08:11:38.235Z,84.80
2017-08-27T08:12:35.735Z,84.82
2017-08-27T08:13:33.156Z,84.83
2017-08-27T08:14:30.498Z,84.87
2017-08-27T08:15:27.884Z,84.90
2017-08-27T08:16:25.195Z,84.92
2017-08-27T08:17:22.520Z,84.96
2017-08-27T08:18:19.994Z,84.96
2017-08-27T08:19:17.327Z,85.00
2017-08-27T08:20:14.802Z,85.01
2017-08-27T08:21:12.255Z,85.04
2017-08-27T08:22:09.655Z,85.07
2017-08-27T08:23:06.978Z,85.09
2017-08-27T08:24:04.460Z,85.11
2017-08-27T08:25:02.154Z,85.13
2017-08-27T08:25:59.533Z,85.13
2017-08-27T08:26:56.922Z,85.16
2017-08-27T08:27:54.258Z,85.17
2017-08-27T08:28:51.640Z,85.20
2017-08-27T08:29:49.264Z,85.24
2017-08-27T08:30:47.090Z,85.26
2017-08-27T08:31:44.591Z,85.27
2017-08-27T08:32:42.107Z,85.28
2017-08-27T08:33:40.718Z,85.32
2017-08-27T08:34:38.123Z,85.31
2017-08-27T08:35:35.731Z,85.33
2017-08-27T08:36:33.080Z,85.39
2017-08-27T08:37:30.466Z,85.39
2017-08-27T08:38:27.892Z,85.41
2017-08-27T08:39:25.318Z,85.41
2017-08-27T08:40:22.739Z,85.42
2017-08-27T08:41:20.087Z,85.42
2017-08-27T08:42:17.586Z,85.46
2017-08-27T08:43:14.910Z,85.49
2017-08-27T08:44:12.347Z,85.53
2017-08-27T08:45:09.666Z,85.56
2017-08-27T08:46:06.979Z,85.54
2017-08-27T08:47:04.302Z,85.57
2017-08-27T08:48:01.745Z,85.59
2017-08-27T08:48:59.045Z,85.66
2017-08-27T08:49:56.401Z,85.68
2017-08-27T08:50:53.682Z,85.68
2017-08-27T08:51:51.036Z,85.70
2017-08-27T08:52:48.466Z,85.71
2017-08-27T08:53:45.797Z,85.74
2017-08-27T08:54:43.174Z,85.77
2017-08-27T08:55:40.510Z,85.81
2017-08-27T08:56:37.909Z,85.85
2017-08-27T08:57:35.222Z,85.86
2017-08-27T08:58:32.639Z,85.89
2017-08-27T08:59:30.031Z,85.92
2017-08-27T09:00:27.337Z,85.94
2017-08-27T09:01:24.650Z,85.97
2017-08-27T09:02:22.040Z,86.00
2017-08-27T09:03:19.498Z,86.04
2017-08-27T09:04:16.807Z,86.07
2017-08-27T09:05:14.141Z,86.11
2017-08-27T09:06:11.433Z,86.14
2017-08-27T09:07:08.771Z,86.16
2017-08-27T09:08:06.067Z,86.15
2017-08-27T09:09:03.446Z,86.18
2017-08-27T09:10:00.785Z,86.22
2017-08-27T09:10:58.090Z,86.23
2017-08-27T09:11:55.383Z,86.24
2017-08-27T09:12:52.707Z,86.26
2017-08-27T09:13:50.003Z,86.30
2017-08-27T09:14:47.307Z,86.31
2017-08-27T09:15:44.602Z,86.34
2017-08-27T09:16:41.906Z,86.36
2017-08-27T09:17:39.198Z,86.39
2017-08-27T09:18:36.482Z,86.41
2017-08-27T09:19:33.781Z,86.41
2017-08-27T09:20:31.114Z,86.45
2017-08-27T09:21:30.459Z,86.45
2017-08-27T09:22:27.774Z,86.48
2017-08-27T09:23:25.057Z,86.51
2017-08-27T09:24:22.399Z,86.53
2017-08-27T09:25:19.778Z,86.52
2017-08-27T09:26:17.154Z,86.56
2017-08-27T09:27:14.502Z,86.58
2017-08-27T09:28:12.189Z,86.60
2017-08-27T09:29:09.738Z,86.64
2017-08-27T09:30:07.434Z,86.67
2017-08-27T09:31:04.742Z,86.71
2017-08-27T09:32:02.245Z,86.76
2017-08-27T09:33:00.664Z,86.74
2017-08-27T09:33:58.301Z,86.78
2017-08-27T09:34:55.810Z,86.82
2017-08-27T09:35:53.231Z,86.84
2017-08-27T09:36:50.553Z,86.85
2017-08-27T09:37:48.749Z,86.88
2017-08-27T09:38:46.278Z,86.92
2017-08-27T09:39:43.621Z,86.93
2017-08-27T09:40:41.141Z,86.93
2017-08-27T09:41:38.446Z,86.91
2017-08-27T09:42:35.955Z,86.90
2017-08-27T09:43:33.266Z,86.89
2017-08-27T09:44:30.733Z,86.88
2017-08-27T09:45:28.212Z,86.87
2017-08-27T09:46:25.559Z,86.87
2017-08-27T09:47:23.008Z,86.87
2017-08-27T09:48:20.291Z,86.86
2017-08-27T09:49:17.728Z,86.87
2017-08-27T09:50:15.137Z,86.88
2017-08-27T09:51:12.474Z,86.89
2017-08-27T09:52:09.781Z,86.88
2017-08-27T09:53:07.103Z,86.88
2017-08-27T09:54:04.398Z,86.87
2017-08-27T09:55:02.258Z,86.89
2017-08-27T09:55:59.655Z,86.89
2017-08-27T09:56:56.945Z,86.89
2017-08-27T09:57:54.217Z,86.93
2017-08-27T09:58:52.576Z,86.91
2017-08-27T09:59:49.856Z,86.87
2017-08-27T10:00:47.427Z,86.84
2017-08-27T10:01:45.383Z,86.87
2017-08-27T10:02:43.101Z,86.90
2017-08-27T10:03:40.570Z,86.90
2017-08-27T10:04:38.347Z,86.87
2017-08-27T10:05:35.662Z,86.90
2017-08-27T10:06:33.038Z,86.90
2017-08-27T10:07:32.099Z,86.89
2017-08-27T10:08:30.167Z,86.90
2017-08-27T10:09:27.459Z,86.94
2017-08-27T10:10:24.987Z,86.95
2017-08-27T10:11:23.775Z,86.92
2017-08-27T10:12:22.300Z,86.93
2017-08-27T10:13:21.671Z,86.90
2017-08-27T10:14:19.166Z,86.89
2017-08-27T10:15:16.550Z,86.86
2017-08-27T10:16:13.878Z,86.83
2017-08-27T10:17:11.179Z,86.79
2017-08-27T10:18:08.499Z,86.75
2017-08-27T10:19:05.949Z,86.71
2017-08-27T10:20:14.966Z,86.70
2017-08-27T10:21:13.645Z,86.65
2017-08-27T10:22:11.944Z,86.66
2017-08-27T10:23:10.448Z,86.65
2017-08-27T10:24:07.863Z,86.62
2017-08-27T10:25:06.715Z,86.60
2017-08-27T10:26:04.018Z,86.60
2017-08-27T10:27:09.182Z,86.57
2017-08-27T10:28:08.375Z,86.58
2017-08-27T10:29:07.581Z,86.54
2017-08-27T10:30:05.146Z,86.53
2017-08-27T10:31:02.434Z,86.50
2017-08-27T10:31:59.751Z,86.51
2017-08-27T10:32:57.092Z,86.52
2017-08-27T10:33:54.467Z,86.53
2017-08-27T10:34:51.902Z,86.53
2017-08-27T10:35:49.294Z,86.50
2017-08-27T10:36:46.606Z,86.49
2017-08-27T10:37:43.956Z,86.48
2017-08-27T10:38:41.276Z,86.49
2017-08-27T10:39:38.599Z,86.48
2017-08-27T10:40:35.902Z,86.43
2017-08-27T10:41:33.238Z,86.41
2017-08-27T10:42:30.532Z,86.40
2017-08-27T10:43:27.838Z,86.37
2017-08-27T10:44:25.129Z,86.36
2017-08-27T10:45:22.422Z,86.34
2017-08-27T10:46:19.750Z,86.33
2017-08-27T10:47:17.190Z,86.31
2017-08-27T10:48:14.522Z,86.30
2017-08-27T10:49:11.812Z,86.27
2017-08-27T10:50:09.095Z,86.26
2017-08-27T10:51:06.371Z,86.30
2017-08-27T10:52:03.633Z,86.33
2017-08-27T10:53:01.002Z,86.31
2017-08-27T10:53:58.374Z,86.27
2017-08-27T10:54:55.673Z,86.26
2017-08-27T10:55:52.986Z,86.22
2017-08-27T10:56:50.943Z,86.27
2017-08-27T10:57:48.300Z,86.24
2017-08-27T10:58:45.618Z,86.22
2017-08-27T10:59:44.504Z,86.16
2017-08-27T11:00:42.752Z,86.10
2017-08-27T11:01:40.613Z,86.05
2017-08-27T11:02:38.308Z,86.03
2017-08-27T11:03:35.622Z,86.01
2017-08-27T11:04:32.894Z,86.04
2017-08-27T11:05:30.170Z,86.05
2017-08-27T11:06:27.482Z,86.02
2017-08-27T11:07:24.792Z,85.95
2017-08-27T11:08:22.093Z,85.91
2017-08-27T11:09:19.404Z,85.85
2017-08-27T11:10:17.090Z,85.81
2017-08-27T11:11:14.393Z,85.76
2017-08-27T11:12:11.793Z,85.73
2017-08-27T11:13:09.240Z,85.69
2017-08-27T11:14:06.737Z,85.65
2017-08-27T11:15:04.069Z,85.62
2017-08-27T11:16:01.448Z,85.59
2017-08-27T11:17:00.857Z,85.55
2017-08-27T11:17:58.141Z,85.53
2017-08-27T11:18:55.510Z,85.51
2017-08-27T11:19:53.878Z,85.48
2017-08-27T11:20:51.220Z,85.49
2017-08-27T11:21:49.068Z,85.44
2017-08-27T11:22:46.384Z,85.41
2017-08-27T11:23:43.683Z,85.42
2017-08-27T11:24:40.976Z,85.35
2017-08-27T11:25:38.257Z,85.29
2017-08-27T11:26:35.547Z,85.30
2017-08-27T11:27:32.805Z,85.22
2017-08-27T11:28:30.086Z,85.15
2017-08-27T11:29:27.370Z,85.06
2017-08-27T11:30:24.695Z,85.04
2017-08-27T11:31:25.933Z,84.99
2017-08-27T11:32:23.211Z,84.94
2017-08-27T11:33:20.495Z,84.94
2017-08-27T11:34:18.065Z,84.90
2017-08-27T11:35:15.646Z,84.86
2017-08-27T11:36:12.960Z,84.83
2017-08-27T11:37:10.234Z,84.83
2017-08-27T11:38:07.557Z,84.80
2017-08-27T11:39:04.882Z,84.79
2017-08-27T11:40:02.546Z,84.78
2017-08-27T11:41:00.250Z,84.74
2017-08-27T11:41:57.593Z,84.72
2017-08-27T11:42:54.904Z,84.73
2017-08-27T11:43:52.233Z,84.64
2017-08-27T11:44:49.794Z,84.62
2017-08-27T11:45:47.282Z,84.56
2017-08-27T11:46:44.622Z,84.45
2017-08-27T11:47:42.034Z,84.35
2017-08-27T11:48:39.419Z,84.29
2017-08-27T11:49:37.601Z,84.18
2017-08-27T11:50:34.878Z,84.13
2017-08-27T11:51:32.169Z,84.06
2017-08-27T11:52:29.473Z,84.02
2017-08-27T11:53:26.874Z,83.93
2017-08-27T11:54:24.292Z,83.87
2017-08-27T11:55:21.670Z,83.79
2017-08-27T11:56:18.970Z,83.71
2017-08-27T11:57:16.310Z,83.67
2017-08-27T11:58:13.694Z,83.62
2017-08-27T11:59:10.991Z,83.56
2017-08-27T12:00:08.318Z,83.51
2017-08-27T12:01:05.615Z,83.45
2017-08-27T12:02:02.926Z,83.31
2017-08-27T12:03:00.198Z,83.22
2017-08-27T12:03:57.474Z,83.11
2017-08-27T12:04:54.841Z,83.06
2017-08-27T12:05:52.122Z,83.00
2017-08-27T12:06:49.420Z,82.92
2017-08-27T12:07:46.697Z,82.91
2017-08-27T12:08:44.088Z,82.82
2017-08-27T12:09:41.790Z,82.68
2017-08-27T12:10:39.453Z,82.60
2017-08-27T12:11:37.942Z,82.49
2017-08-27T12:12:35.333Z,82.47
2017-08-27T12:13:33.238Z,82.40
2017-08-27T12:14:31.298Z,82.37
2017-08-27T12:15:30.596Z,82.36
2017-08-27T12:16:28.353Z,82.28
2017-08-27T12:17:25.754Z,82.19
2017-08-27T12:18:23.857Z,82.09
2017-08-27T12:20:32.330Z,81.85